Time;durP1;ratioP1;P1;durP2;ratioP2;P2;SDS_P1;SDS_P2;PMS_P1;PMS_P2;Temp;Humidity;BMP_temperature;BMP_pressure;BME280_temperature;BME280_humidity;BME280_pressure;Samples;Min_cycle;Max_cycle;Signal;HPM_P1;HPM_P2
2023/11/10 00:00:16;;;;;;;;;;;;;;;;;;5069614;28;20023;-74
2023/11/10 00:02:43;;;;;;;;;;;;;;;;;;5072402;28;19924;-74
2023/11/10 00:05:11;;;;;;;;;;;;;;;;;;5060490;28;20011;-74
2023/11/10 00:07:38;;;;;;;;;;;;;;;;;;5072541;28;19947;-74
2023/11/10 00:10:05;;;;;;;;;;;;;;;;;;5059023;28;19925;-74
2023/11/10 00:12:32;;;;;;;;;;;;;;;;;;5072475;28;19970;-74
2023/11/10 00:15:00;;;;;;;;;;;;;;;;;;5067291;28;19935;-74
2023/11/10 00:17:27;;;;;;;;;;;;;;;;;;5072641;28;19924;-74
2023/11/10 00:19:54;;;;;;;;;;;;;;;;;;5075107;28;19924;-73
2023/11/10 00:22:21;;;;;;;;;;;;;;;;;;5062929;28;20310;-74
2023/11/10 00:24:48;;;;;;;;;;;;;;;;;;5066849;28;19972;-73
2023/11/10 00:27:15;;;;;;;;;;;;;;;;;;5071506;28;20012;-75
2023/11/10 00:29:42;;;;;;;;;;;;;;;;;;5066124;28;20383;-74
2023/11/10 00:32:09;;;;;;;;;;;;;;;;;;5057270;28;19929;-75
2023/11/10 00:34:36;;;;;;;;;;;;;;;;;;5064274;28;20035;-75
2023/11/10 00:37:04;;;;;;;;;;;;;;;;;;5071683;28;20310;-74
2023/11/10 00:39:31;;;;;;;;;;;;;;;;;;5066235;28;20375;-74
2023/11/10 00:41:58;;;;;;;;;;;;;;;;;;5067833;28;19990;-73
2023/11/10 00:44:27;;;;;;;;;;;;;;;;;;5081494;28;19932;-73
2023/11/10 00:46:54;;;;;;;;;;;;;;;;;;5082113;28;20018;-73
2023/11/10 00:49:21;;;;;;;;;;;;;;;;;;5076673;28;19934;-73
2023/11/10 00:51:49;;;;;;;;;;;;;;;;;;5074296;28;20666;-73
2023/11/10 00:54:17;;;;;;;;;;;;;;;;;;5065732;28;19968;-74
2023/11/10 00:56:44;;;;;;;;;;;;;;;;;;5075417;28;20019;-74
2023/11/10 00:59:11;;;;;;;;;;;;;;;;;;5065961;28;19925;-74
2023/11/10 01:01:38;;;;;;;;;;;;;;;;;;5075588;28;19958;-74
2023/11/10 01:04:05;;;;;;;;;;;;;;;;;;5071840;28;19964;-74
2023/11/10 01:06:32;;;;;;;;;;;;;;;;;;5075277;28;19925;-74
2023/11/10 01:08:59;;;;;;;;;;;;;;;;;;5069817;28;19925;-74
2023/11/10 01:11:27;;;;;;;;;;;;;;;;;;5055184;28;19925;-74
2023/11/10 01:13:54;;;;;;;;;;;;;;;;;;5066391;28;19947;-75
2023/11/10 01:16:21;;;;;;;;;;;;;;;;;;5075611;28;19925;-75
2023/11/10 01:18:48;;;;;;;;;;;;;;;;;;5072042;28;19933;-75
2023/11/10 01:21:15;;;;;;;;;;;;;;;;;;5055182;28;20054;-74
2023/11/10 01:23:42;;;;;;;;;;;;;;;;;;5065298;28;19924;-73
2023/11/10 01:26:09;;;;;;;;;;;;;;;;;;5055106;28;19928;-74
2023/11/10 01:28:37;;;;;;;;;;;;;;;;;;5065445;28;19978;-74
2023/11/10 01:31:04;;;;;;;;;;;;;;;;;;5065438;28;19929;-75
2023/11/10 01:33:31;;;;;;;;;;;;;;;;;;5058181;28;19955;-74
2023/11/10 01:35:58;;;;;;;;;;;;;;;;;;5085365;28;20395;-75
2023/11/10 01:38:25;;;;;;;;;;;;;;;;;;5077465;28;19924;-75
2023/11/10 01:40:52;;;;;;;;;;;;;;;;;;5073858;28;19932;-75
2023/11/10 01:43:19;;;;;;;;;;;;;;;;;;5069376;28;20018;-74
2023/11/10 01:45:46;;;;;;;;;;;;;;;;;;5072194;28;20395;-75
2023/11/10 01:48:13;;;;;;;;;;;;;;;;;;5074980;28;19929;-73
2023/11/10 01:50:40;;;;;;;;;;;;;;;;;;5061270;28;20024;-72
2023/11/10 01:53:07;;;;;;;;;;;;;;;;;;5064300;28;19968;-72
2023/11/10 01:55:35;;;;;;;;;;;;;;;;;;5068133;28;19970;-72
2023/11/10 01:58:02;;;;;;;;;;;;;;;;;;5072571;28;19928;-72
2023/11/10 02:00:30;;;;;;;;;;;;;;;;;;5061601;28;19931;-73
2023/11/10 02:02:58;;;;;;;;;;;;;;;;;;5071637;28;20372;-72
2023/11/10 02:05:25;;;;;;;;;;;;;;;;;;5062766;28;19925;-72
2023/11/10 02:07:53;;;;;;;;;;;;;;;;;;5073945;28;19931;-72
2023/11/10 02:10:20;;;;;;;;;;;;;;;;;;5067999;28;19925;-74
2023/11/10 02:12:47;;;;;;;;;;;;;;;;;;5067039;28;20011;-74
2023/11/10 02:15:14;;;;;;;;;;;;;;;;;;5070806;28;19924;-73
2023/11/10 02:17:41;;;;;;;;;;;;;;;;;;5081551;28;20390;-72
2023/11/10 02:20:09;;;;;;;;;;;;;;;;;;5067836;28;19924;-73
2023/11/10 02:22:36;;;;;;;;;;;;;;;;;;5053230;28;19925;-72
2023/11/10 02:25:03;;;;;;;;;;;;;;;;;;5063474;28;19975;-72
2023/11/10 02:27:30;;;;;;;;;;;;;;;;;;5073588;28;20015;-71
2023/11/10 02:29:57;;;;;;;;;;;;;;;;;;5072118;28;19964;-72
2023/11/10 02:32:24;;;;;;;;;;;;;;;;;;5054167;28;19957;-72
2023/11/10 02:34:51;;;;;;;;;;;;;;;;;;5056461;28;19963;-72
2023/11/10 02:37:18;;;;;;;;;;;;;;;;;;5067590;28;19924;-72
2023/11/10 02:39:45;;;;;;;;;;;;;;;;;;5067191;28;19953;-72
2023/11/10 02:42:12;;;;;;;;;;;;;;;;;;5058727;28;19924;-74
2023/11/10 02:44:39;;;;;;;;;;;;;;;;;;5061377;28;19978;-72
2023/11/10 02:47:06;;;;;;;;;;;;;;;;;;5067445;28;20272;-73
2023/11/10 02:49:33;;;;;;;;;;;;;;;;;;5069065;28;19970;-73
2023/11/10 02:52:00;;;;;;;;;;;;;;;;;;5064310;28;19986;-72
2023/11/10 02:54:27;;;;;;;;;;;;;;;;;;5070525;28;19978;-72
2023/11/10 02:56:54;;;;;;;;;;;;;;;;;;5067603;28;19928;-73
2023/11/10 02:59:21;;;;;;;;;;;;;;;;;;5063938;28;19929;-71
2023/11/10 03:01:48;;;;;;;;;;;;;;;;;;5052947;28;19925;-72
2023/11/10 03:04:15;;;;;;;;;;;;;;;;;;5060565;28;19970;-72
2023/11/10 03:06:42;;;;;;;;;;;;;;;;;;5066700;28;19959;-73
2023/11/10 03:09:09;;;;;;;;;;;;;;;;;;5060748;28;19990;-73
2023/11/10 03:11:36;;;;;;;;;;;;;;;;;;5071550;28;19929;-73
2023/11/10 03:14:03;;;;;;;;;;;;;;;;;;5067590;28;19967;-73
2023/11/10 03:16:30;;;;;;;;;;;;;;;;;;5062959;28;19986;-73
2023/11/10 03:18:57;;;;;;;;;;;;;;;;;;5057973;28;20028;-73
2023/11/10 03:21:25;;;;;;;;;;;;;;;;;;5069409;28;20466;-73
2023/11/10 03:23:52;;;;;;;;;;;;;;;;;;5069536;28;19924;-73
2023/11/10 03:26:19;;;;;;;;;;;;;;;;;;5069090;28;20353;-72
2023/11/10 03:28:46;;;;;;;;;;;;;;;;;;5062070;28;20345;-73
2023/11/10 03:31:13;;;;;;;;;;;;;;;;;;5073990;28;19964;-72
2023/11/10 03:33:42;;;;;;;;;;;;;;;;;;5074636;28;19924;-73
2023/11/10 03:36:09;;;;;;;;;;;;;;;;;;5055171;28;20015;-73
2023/11/10 03:38:36;;;;;;;;;;;;;;;;;;5062317;28;19925;-72
2023/11/10 03:41:03;;;;;;;;;;;;;;;;;;5067092;28;19978;-73
2023/11/10 03:43:30;;;;;;;;;;;;;;;;;;5052818;28;20257;-73
2023/11/10 03:45:57;;;;;;;;;;;;;;;;;;5069418;28;19995;-74
2023/11/10 03:48:25;;;;;;;;;;;;;;;;;;5072780;28;19924;-74
2023/11/10 03:50:52;;;;;;;;;;;;;;;;;;5070822;28;19929;-74
2023/11/10 03:53:20;;;;;;;;;;;;;;;;;;5069901;28;19983;-74
2023/11/10 03:55:47;;;;;;;;;;;;;;;;;;5064505;28;19978;-73
2023/11/10 03:58:14;;;;;;;;;;;;;;;;;;5079044;28;19988;-73
2023/11/10 04:00:41;;;;;;;;;;;;;;;;;;5068307;28;19925;-73
2023/11/10 04:03:08;;;;;;;;;;;;;;;;;;5072537;28;20007;-73
2023/11/10 04:05:35;;;;;;;;;;;;;;;;;;5065817;28;19925;-74
2023/11/10 04:08:02;;;;;;;;;;;;;;;;;;5071802;28;19978;-74
2023/11/10 04:10:29;;;;;;;;;;;;;;;;;;5071166;28;20448;-74
2023/11/10 04:12:57;;;;;;;;;;;;;;;;;;5071730;28;20035;-73
2023/11/10 04:15:26;;;;;;;;;;;;;;;;;;5071080;28;19931;-74
2023/11/10 04:17:53;;;;;;;;;;;;;;;;;;5070788;28;19924;-74
2023/11/10 04:20:20;;;;;;;;;;;;;;;;;;5058566;28;19924;-74
2023/11/10 04:22:47;;;;;;;;;;;;;;;;;;5052272;28;20023;-74
2023/11/10 04:25:14;;;;;;;;;;;;;;;;;;5054914;28;19932;-74
2023/11/10 04:27:41;;;;;;;;;;;;;;;;;;5065876;28;20041;-74
2023/11/10 04:30:09;;;;;;;;;;;;;;;;;;5062614;28;19928;-74
2023/11/10 04:32:37;;;;;;;;;;;;;;;;;;5071650;28;19925;-73
2023/11/10 04:35:04;;;;;;;;;;;;;;;;;;5071879;28;19947;-74
2023/11/10 04:37:31;;;;;;;;;;;;;;;;;;5055860;28;19924;-74
2023/11/10 04:39:58;;;;;;;;;;;;;;;;;;5065175;28;20354;-74
2023/11/10 04:42:26;;;;;;;;;;;;;;;;;;5061824;28;19925;-73
2023/11/10 04:44:53;;;;;;;;;;;;;;;;;;5072483;28;19924;-74
2023/11/10 04:47:20;;;;;;;;;;;;;;;;;;5069260;28;19925;-74
2023/11/10 04:49:47;;;;;;;;;;;;;;;;;;5062251;28;20431;-74
2023/11/10 04:52:15;;;;;;;;;;;;;;;;;;5055832;28;19960;-74
2023/11/10 04:54:45;;;;;;;;;;;;;;;;;;5081359;28;19960;-74
2023/11/10 04:57:12;;;;;;;;;;;;;;;;;;5068639;28;19928;-74
2023/11/10 04:59:41;;;;;;;;;;;;;;;;;;5073879;28;19925;-74
2023/11/10 05:02:09;;;;;;;;;;;;;;;;;;5057893;28;20375;-74
2023/11/10 05:04:36;;;;;;;;;;;;;;;;;;5058716;28;19925;-74
2023/11/10 05:07:03;;;;;;;;;;;;;;;;;;5070636;28;19940;-75
2023/11/10 05:09:30;;;;;;;;;;;;;;;;;;5065949;28;19947;-74
2023/11/10 05:11:58;;;;;;;;;;;;;;;;;;5077913;28;19963;-73
2023/11/10 05:14:25;;;;;;;;;;;;;;;;;;5071101;28;19936;-73
2023/11/10 05:16:52;;;;;;;;;;;;;;;;;;5060945;28;20019;-73
2023/11/10 05:19:19;;;;;;;;;;;;;;;;;;5060242;28;19982;-73
2023/11/10 05:21:46;;;;;;;;;;;;;;;;;;5073808;28;19952;-73
2023/11/10 05:24:13;;;;;;;;;;;;;;;;;;5074325;28;19978;-72
2023/11/10 05:26:41;;;;;;;;;;;;;;;;;;5069008;28;19924;-73
2023/11/10 05:29:09;;;;;;;;;;;;;;;;;;5054854;28;19932;-74
2023/11/10 05:31:37;;;;;;;;;;;;;;;;;;5066997;28;20418;-73
2023/11/10 05:34:04;;;;;;;;;;;;;;;;;;5071281;28;19932;-73
2023/11/10 05:36:31;;;;;;;;;;;;;;;;;;5082329;28;19924;-74
2023/11/10 05:38:58;;;;;;;;;;;;;;;;;;5073492;28;20026;-73
2023/11/10 05:41:25;;;;;;;;;;;;;;;;;;5073884;28;19978;-74
2023/11/10 05:43:52;;;;;;;;;;;;;;;;;;5074227;28;19998;-74
2023/11/10 05:46:19;;;;;;;;;;;;;;;;;;5070933;28;19924;-73
2023/11/10 05:48:46;;;;;;;;;;;;;;;;;;5057062;28;19928;-73
2023/11/10 05:51:13;;;;;;;;;;;;;;;;;;5068896;28;20021;-73
2023/11/10 05:53:40;;;;;;;;;;;;;;;;;;5072977;28;19975;-73
2023/11/10 05:56:09;;;;;;;;;;;;;;;;;;5058276;28;19956;-74
2023/11/10 05:58:36;;;;;;;;;;;;;;;;;;5082587;28;19924;-74
2023/11/10 06:01:03;;;;;;;;;;;;;;;;;;5069428;28;19958;-74
2023/11/10 06:03:30;;;;;;;;;;;;;;;;;;5073414;28;19931;-74
2023/11/10 06:05:57;;;;;;;;;;;;;;;;;;5073270;28;20011;-74
2023/11/10 06:08:25;;;;;;;;;;;;;;;;;;5056253;28;19924;-75
2023/11/10 06:10:53;;;;;;;;;;;;;;;;;;5057821;28;19924;-74
2023/11/10 06:13:20;;;;;;;;;;;;;;;;;;5070080;28;19978;-74
2023/11/10 06:15:47;;;;;;;;;;;;;;;;;;5063448;28;20390;-73
2023/11/10 06:18:15;;;;;;;;;;;;;;;;;;5059923;28;19932;-73
2023/11/10 06:20:42;;;;;;;;;;;;;;;;;;5065705;28;19928;-74
2023/11/10 06:23:09;;;;;;;;;;;;;;;;;;5061600;28;19924;-73
2023/11/10 06:25:36;;;;;;;;;;;;;;;;;;5069188;28;19963;-73
2023/11/10 06:28:03;;;;;;;;;;;;;;;;;;5064206;28;19933;-77
2023/11/10 06:30:30;;;;;;;;;;;;;;;;;;5069451;28;19931;-72
2023/11/10 06:32:57;;;;;;;;;;;;;;;;;;5055446;28;19960;-74
2023/11/10 06:35:24;;;;;;;;;;;;;;;;;;5067458;28;19925;-72
2023/11/10 06:37:51;;;;;;;;;;;;;;;;;;5066049;28;19928;-72
2023/11/10 06:40:18;;;;;;;;;;;;;;;;;;5068788;28;20403;-73
2023/11/10 06:42:45;;;;;;;;;;;;;;;;;;5065677;28;19924;-73
2023/11/10 06:45:14;;;;;;;;;;;;;;;;;;5065941;28;19924;-73
2023/11/10 06:47:42;;;;;;;;;;;;;;;;;;5070787;28;19925;-72
2023/11/10 06:50:09;;;;;;;;;;;;;;;;;;5069616;28;20406;-72
2023/11/10 06:52:36;;;;;;;;;;;;;;;;;;5071684;28;19924;-73
2023/11/10 06:55:03;;;;;;;;;;;;;;;;;;5069653;28;19943;-72
2023/11/10 06:57:30;;;;;;;;;;;;;;;;;;5067084;28;19985;-72
2023/11/10 06:59:57;;;;;;;;;;;;;;;;;;5055646;28;19972;-73
2023/11/10 07:02:24;;;;;;;;;;;;;;;;;;5066555;28;19960;-73
2023/11/10 07:04:52;;;;;;;;;;;;;;;;;;5060887;28;19939;-73
2023/11/10 07:07:19;;;;;;;;;;;;;;;;;;5071269;28;19932;-73
2023/11/10 07:09:46;;;;;;;;;;;;;;;;;;5072123;28;19987;-72
2023/11/10 07:12:14;;;;;;;;;;;;;;;;;;5068883;28;20314;-70
2023/11/10 07:14:42;;;;;;;;;;;;;;;;;;5064969;28;19967;-71
2023/11/10 07:17:11;;;;;;;;;;;;;;;;;;5061385;28;19928;-71
2023/11/10 07:19:38;;;;;;;;;;;;;;;;;;5062093;28;20307;-73
2023/11/10 07:22:05;;;;;;;;;;;;;;;;;;5061150;28;20003;-71
2023/11/10 07:24:32;;;;;;;;;;;;;;;;;;5059522;28;20027;-69
2023/11/10 07:26:59;;;;;;;;;;;;;;;;;;5055519;28;20430;-72
2023/11/10 07:29:26;;;;;;;;;;;;;;;;;;5061128;28;19974;-73
2023/11/10 07:31:55;;;;;;;;;;;;;;;;;;5064071;28;19925;-74
2023/11/10 07:34:22;;;;;;;;;;;;;;;;;;5063284;28;20288;-73
2023/11/10 07:36:49;;;;;;;;;;;;;;;;;;5066090;28;19933;-74
2023/11/10 07:39:16;;;;;;;;;;;;;;;;;;5066566;28;19924;-75
2023/11/10 07:41:43;;;;;;;;;;;;;;;;;;5054641;28;19925;-74
2023/11/10 07:44:12;;;;;;;;;;;;;;;;;;5065528;28;19988;-75
2023/11/10 07:46:39;;;;;;;;;;;;;;;;;;5059595;28;20535;-74
2023/11/10 07:49:06;;;;;;;;;;;;;;;;;;5063137;28;19925;-74
2023/11/10 07:51:33;;;;;;;;;;;;;;;;;;5064439;28;20003;-75
2023/11/10 07:54:00;;;;;;;;;;;;;;;;;;5065365;28;19925;-73
2023/11/10 07:56:27;;;;;;;;;;;;;;;;;;5054812;28;19925;-74
2023/11/10 07:58:54;;;;;;;;;;;;;;;;;;5062807;28;19944;-74
2023/11/10 08:01:21;;;;;;;;;;;;;;;;;;5064140;28;19974;-74
2023/11/10 08:03:48;;;;;;;;;;;;;;;;;;5067654;28;19959;-75
2023/11/10 08:06:15;;;;;;;;;;;;;;;;;;5070071;28;19925;-74
2023/11/10 08:08:42;;;;;;;;;;;;;;;;;;5068762;28;20466;-73
2023/11/10 08:11:11;;;;;;;;;;;;;;;;;;5072448;28;19974;-74
2023/11/10 08:13:38;;;;;;;;;;;;;;;;;;5068201;28;19954;-74
2023/11/10 08:16:05;;;;;;;;;;;;;;;;;;5066106;28;19994;-73
2023/11/10 08:18:32;;;;;;;;;;;;;;;;;;5069757;28;19925;-74
2023/11/10 08:20:59;;;;;;;;;;;;;;;;;;5059404;28;19925;-75
2023/11/10 08:23:26;;;;;;;;;;;;;;;;;;5068317;28;19925;-75
2023/11/10 08:25:53;;;;;;;;;;;;;;;;;;5073510;28;19928;-75
2023/11/10 08:28:20;;;;;;;;;;;;;;;;;;5072230;28;19924;-77
2023/11/10 08:30:47;;;;;;;;;;;;;;;;;;5068798;28;20395;-76
2023/11/10 08:33:14;;;;;;;;;;;;;;;;;;5070886;28;20027;-74
2023/11/10 08:35:42;;;;;;;;;;;;;;;;;;5071504;28;19986;-75
2023/11/10 08:38:09;;;;;;;;;;;;;;;;;;5061028;28;20019;-76
2023/11/10 08:40:36;;;;;;;;;;;;;;;;;;5068068;28;19942;-73
2023/11/10 08:43:03;;;;;;;;;;;;;;;;;;5067133;28;20004;-72
2023/11/10 08:45:30;;;;;;;;;;;;;;;;;;5063218;28;19925;-77
2023/11/10 08:47:58;;;;;;;;;;;;;;;;;;5061363;28;20341;-71
2023/11/10 08:50:25;;;;;;;;;;;;;;;;;;5065410;28;20347;-73
2023/11/10 08:52:53;;;;;;;;;;;;;;;;;;5066831;28;20303;-73
2023/11/10 08:55:21;;;;;;;;;;;;;;;;;;5066724;28;20367;-72
2023/11/10 08:57:48;;;;;;;;;;;;;;;;;;5061244;28;19971;-74
2023/11/10 09:00:17;;;;;;;;;;;;;;;;;;5065413;28;19971;-74
2023/11/10 09:02:44;;;;;;;;;;;;;;;;;;5062225;28;19943;-74
2023/11/10 09:05:11;;;;;;;;;;;;;;;;;;5068891;28;19925;-73
2023/11/10 09:07:39;;;;;;;;;;;;;;;;;;5066665;28;20019;-73
2023/11/10 09:10:06;;;;;;;;;;;;;;;;;;5066666;28;20011;-74
2023/11/10 09:12:33;;;;;;;;;;;;;;;;;;5059759;28;19978;-68
2023/11/10 09:15:00;;;;;;;;;;;;;;;;;;5069042;28;19984;-69
2023/11/10 09:17:27;;;;;;;;;;;;;;;;;;5062617;28;20015;-69
2023/11/10 09:19:54;;;;;;;;;;;;;;;;;;5064567;28;20330;-74
2023/11/10 09:22:21;;;;;;;;;;;;;;;;;;5067884;28;19967;-73
2023/11/10 09:24:48;;;;;;;;;;;;;;;;;;5058885;28;20007;-79
2023/11/10 09:27:16;;;;;;;;;;;;;;;;;;5062332;28;19978;-81
2023/11/10 09:29:43;;;;;;;;;;;;;;;;;;5067109;28;19974;-79
2023/11/10 09:32:10;;;;;;;;;;;;;;;;;;5070246;28;19977;-79
2023/11/10 09:34:37;;;;;;;;;;;;;;;;;;5062335;28;20004;-79
2023/11/10 09:37:04;;;;;;;;;;;;;;;;;;5073339;28;20391;-78
2023/11/10 09:39:31;;;;;;;;;;;;;;;;;;5070022;28;20031;-78
2023/11/10 09:41:58;;;;;;;;;;;;;;;;;;5068131;28;20014;-77
2023/11/10 09:44:25;;;;;;;;;;;;;;;;;;5070259;28;20396;-78
2023/11/10 09:46:52;;;;;;;;;;;;;;;;;;5066314;28;20294;-78
2023/11/10 09:49:19;;;;;;;;;;;;;;;;;;5069883;28;19970;-78
2023/11/10 09:51:46;;;;;;;;;;;;;;;;;;5069056;28;19928;-77
2023/11/10 09:54:14;;;;;;;;;;;;;;;;;;5063772;28;19932;-78
2023/11/10 09:56:41;;;;;;;;;;;;;;;;;;5067306;28;20298;-77
2023/11/10 09:59:08;;;;;;;;;;;;;;;;;;5070122;28;19979;-79
2023/11/10 10:01:35;;;;;;;;;;;;;;;;;;5071967;28;19982;-78
2023/11/10 10:04:03;;;;;;;;;;;;;;;;;;5059376;28;19964;-78
2023/11/10 10:06:30;;;;;;;;;;;;;;;;;;5069894;28;20041;-76
2023/11/10 10:08:58;;;;;;;;;;;;;;;;;;5061708;28;19924;-79
2023/11/10 10:11:25;;;;;;;;;;;;;;;;;;5063664;28;19929;-79
2023/11/10 10:13:52;;;;;;;;;;;;;;;;;;5068203;28;19971;-78
2023/11/10 10:16:20;;;;;;;;;;;;;;;;;;5060983;28;19965;-77
2023/11/10 10:18:47;;;;;;;;;;;;;;;;;;5060853;28;19932;-76
2023/11/10 10:21:15;;;;;;;;;;;;;;;;;;5065803;28;20129;-77
2023/11/10 10:23:44;;;;;;;;;;;;;;;;;;5065705;28;19929;-76
2023/11/10 10:26:12;;;;;;;;;;;;;;;;;;5061048;28;20224;-77
2023/11/10 10:28:39;;;;;;;;;;;;;;;;;;5060887;28;19926;-76
2023/11/10 10:31:06;;;;;;;;;;;;;;;;;;5071046;28;19924;-76
2023/11/10 10:33:33;;;;;;;;;;;;;;;;;;5067258;28;20011;-77
2023/11/10 10:36:00;;;;;;;;;;;;;;;;;;5065598;28;20015;-77
2023/11/10 10:38:27;;;;;;;;;;;;;;;;;;5060605;28;19931;-75
2023/11/10 10:40:55;;;;;;;;;;;;;;;;;;5063407;28;19925;-80
2023/11/10 10:43:22;;;;;;;;;;;;;;;;;;5063882;28;19924;-77
2023/11/10 10:45:49;;;;;;;;;;;;;;;;;;5060668;28;20347;-75
2023/11/10 10:48:16;;;;;;;;;;;;;;;;;;5061779;28;20282;-78
2023/11/10 10:50:43;;;;;;;;;;;;;;;;;;5063449;28;19925;-79
2023/11/10 10:53:10;;;;;;;;;;;;;;;;;;5063173;28;19947;-78
2023/11/10 10:55:37;;;;;;;;;;;;;;;;;;5061582;28;19983;-78
2023/11/10 10:58:04;;;;;;;;;;;;;;;;;;5067512;28;19924;-80
2023/11/10 11:00:32;;;;;;;;;;;;;;;;;;5068038;28;19925;-80
2023/11/10 11:02:59;;;;;;;;;;;;;;;;;;5059692;28;19931;-79
2023/11/10 11:05:28;;;;;;;;;;;;;;;;;;5061094;28;20008;-81
2023/11/10 11:07:55;;;;;;;;;;;;;;;;;;5064695;28;19933;-80
2023/11/10 11:10:21;;;;;;;;;;;;;;;;;;5064196;28;20007;-79
2023/11/10 11:12:48;;;;;;;;;;;;;;;;;;5058056;28;20004;-78
2023/11/10 11:15:16;;;;;;;;;;;;;;;;;;5063134;28;19968;-78
2023/11/10 11:17:42;;;;;;;;;;;;;;;;;;5061764;28;20019;-77
2023/11/10 11:20:09;;;;;;;;;;;;;;;;;;5064253;28;19997;-79
2023/11/10 11:22:38;;;;;;;;;;;;;;;;;;5063441;28;19924;-79
2023/11/10 11:25:05;;;;;;;;;;;;;;;;;;5063057;28;19929;-74
2023/11/10 11:27:32;;;;;;;;;;;;;;;;;;5060808;28;19970;-78
2023/11/10 11:29:59;;;;;;;;;;;;;;;;;;5062906;28;19996;-79
2023/11/10 11:32:30;;;;;;;;;;;;;;;;;;5063637;28;20027;-79
2023/11/10 11:34:58;;;;;;;;;;;;;;;;;;5068969;28;19924;-79
2023/11/10 11:37:25;;;;;;;;;;;;;;;;;;5068721;28;19931;-79
2023/11/10 11:39:53;;;;;;;;;;;;;;;;;;5061089;28;20383;-78
2023/11/10 11:42:20;;;;;;;;;;;;;;;;;;5067030;28;20098;-80
2023/11/10 11:44:47;;;;;;;;;;;;;;;;;;5069322;28;19924;-79
2023/11/10 11:47:14;;;;;;;;;;;;;;;;;;5067529;28;20425;-79
2023/11/10 11:49:41;;;;;;;;;;;;;;;;;;5068403;28;20462;-77
2023/11/10 11:52:08;;;;;;;;;;;;;;;;;;5053320;28;19925;-79
2023/11/10 11:54:37;;;;;;;;;;;;;;;;;;5067285;28;20317;-79
2023/11/10 11:57:04;;;;;;;;;;;;;;;;;;5066402;28;19929;-78
2023/11/10 11:59:31;;;;;;;;;;;;;;;;;;5061075;28;20399;-80
2023/11/10 12:01:58;;;;;;;;;;;;;;;;;;5056855;28;19971;-79
2023/11/10 12:04:26;;;;;;;;;;;;;;;;;;5067417;28;20028;-79
2023/11/10 12:06:53;;;;;;;;;;;;;;;;;;5062062;28;19924;-78
2023/11/10 12:09:21;;;;;;;;;;;;;;;;;;5059293;28;19932;-78
2023/11/10 12:11:50;;;;;;;;;;;;;;;;;;5064546;28;19947;-78
2023/11/10 12:14:18;;;;;;;;;;;;;;;;;;5068960;28;20042;-78
2023/11/10 12:16:45;;;;;;;;;;;;;;;;;;5064287;28;19969;-79
2023/11/10 12:19:13;;;;;;;;;;;;;;;;;;5062006;28;19924;-76
2023/11/10 12:21:42;;;;;;;;;;;;;;;;;;5064149;28;19930;-78
2023/11/10 12:24:09;;;;;;;;;;;;;;;;;;5058142;28;19959;-78
2023/11/10 12:26:37;;;;;;;;;;;;;;;;;;5062126;28;19924;-78
2023/11/10 12:29:04;;;;;;;;;;;;;;;;;;5061406;28;19968;-79
2023/11/10 12:31:32;;;;;;;;;;;;;;;;;;5069554;28;19932;-79
2023/11/10 12:33:59;;;;;;;;;;;;;;;;;;5058191;28;19932;-82
2023/11/10 12:36:26;;;;;;;;;;;;;;;;;;5067233;28;20387;-79
2023/11/10 12:38:53;;;;;;;;;;;;;;;;;;5062249;28;19994;-79
2023/11/10 12:41:21;;;;;;;;;;;;;;;;;;5065981;28;20019;-79
2023/11/10 12:43:49;;;;;;;;;;;;;;;;;;5064487;28;20007;-80
2023/11/10 12:46:16;;;;;;;;;;;;;;;;;;5068748;28;19947;-79
2023/11/10 12:48:43;;;;;;;;;;;;;;;;;;5063403;28;20922;-80
2023/11/10 12:51:10;;;;;;;;;;;;;;;;;;5055888;28;19929;-79
2023/11/10 12:53:37;;;;;;;;;;;;;;;;;;5071130;28;19939;-78
2023/11/10 12:56:06;;;;;;;;;;;;;;;;;;5070519;28;20020;-79
2023/11/10 12:58:34;;;;;;;;;;;;;;;;;;5068152;28;19966;-78
2023/11/10 13:01:01;;;;;;;;;;;;;;;;;;5070245;28;19956;-77
2023/11/10 13:03:27;;;;;;;;;;;;;;;;;;5070367;28;20104;-76
2023/11/10 13:05:55;;;;;;;;;;;;;;;;;;5074823;28;20007;-77
2023/11/10 13:08:24;;;;;;;;;;;;;;;;;;5069638;28;20409;-80
2023/11/10 13:10:51;;;;;;;;;;;;;;;;;;5059857;28;19925;-77
2023/11/10 13:13:18;;;;;;;;;;;;;;;;;;5061254;28;19927;-77
2023/11/10 13:15:47;;;;;;;;;;;;;;;;;;5058925;28;19932;-81
2023/11/10 13:18:14;;;;;;;;;;;;;;;;;;5062672;28;19929;-79
2023/11/10 13:20:41;;;;;;;;;;;;;;;;;;5068471;28;19924;-80
2023/11/10 13:23:08;;;;;;;;;;;;;;;;;;5069673;28;19967;-80
2023/11/10 13:25:36;;;;;;;;;;;;;;;;;;5068797;28;20023;-75
2023/11/10 13:28:06;;;;;;;;;;;;;;;;;;5059009;28;20380;-75
2023/11/10 13:30:33;;;;;;;;;;;;;;;;;;5066528;28;19938;-78
2023/11/10 13:33:00;;;;;;;;;;;;;;;;;;5063368;28;19924;-79
2023/11/10 13:35:27;;;;;;;;;;;;;;;;;;5069394;28;19928;-77
2023/11/10 13:37:54;;;;;;;;;;;;;;;;;;5066190;28;19934;-78
2023/11/10 13:40:21;;;;;;;;;;;;;;;;;;5067958;28;20012;-79
2023/11/10 13:42:49;;;;;;;;;;;;;;;;;;5064692;28;19924;-80
2023/11/10 13:45:17;;;;;;;;;;;;;;;;;;5068712;28;19924;-80
2023/11/10 13:47:44;;;;;;;;;;;;;;;;;;5069127;28;19928;-79
2023/11/10 13:50:11;;;;;;;;;;;;;;;;;;5068921;28;19952;-80
2023/11/10 13:52:38;;;;;;;;;;;;;;;;;;5066249;28;19928;-79
2023/11/10 13:55:06;;;;;;;;;;;;;;;;;;5071648;28;20438;-81
2023/11/10 13:57:33;;;;;;;;;;;;;;;;;;5061237;28;19925;-79
2023/11/10 14:00:00;;;;;;;;;;;;;;;;;;5067802;28;20023;-79
2023/11/10 14:02:27;;;;;;;;;;;;;;;;;;5058660;28;20289;-80
2023/11/10 14:04:54;;;;;;;;;;;;;;;;;;5061610;28;20034;-77
2023/11/10 14:07:22;;;;;;;;;;;;;;;;;;5069635;28;19984;-76
2023/11/10 14:09:49;;;;;;;;;;;;;;;;;;5067870;28;19925;-76
2023/11/10 14:12:16;;;;;;;;;;;;;;;;;;5068547;28;19929;-74
2023/11/10 14:14:45;;;;;;;;;;;;;;;;;;5070190;28;20462;-76
2023/11/10 14:17:12;;;;;;;;;;;;;;;;;;5067853;28;19924;-73
2023/11/10 14:19:39;;;;;;;;;;;;;;;;;;5056799;28;20007;-75
2023/11/10 14:22:08;;;;;;;;;;;;;;;;;;5061697;28;19990;-75
2023/11/10 14:24:35;;;;;;;;;;;;;;;;;;5066796;28;20011;-75
2023/11/10 14:27:02;;;;;;;;;;;;;;;;;;5070549;28;20003;-78
2023/11/10 14:29:29;;;;;;;;;;;;;;;;;;5068700;28;19925;-76
2023/11/10 14:31:58;;;;;;;;;;;;;;;;;;5073419;28;19924;-78
2023/11/10 14:34:29;;;;;;;;;;;;;;;;;;5062292;28;19990;-75
2023/11/10 14:36:56;;;;;;;;;;;;;;;;;;5064880;28;19928;-77
2023/11/10 14:39:23;;;;;;;;;;;;;;;;;;5075623;28;19924;-76
2023/11/10 14:41:51;;;;;;;;;;;;;;;;;;5070539;28;19925;-78
2023/11/10 14:44:18;;;;;;;;;;;;;;;;;;5063907;28;19929;-77
2023/11/10 14:46:46;;;;;;;;;;;;;;;;;;5066759;28;19939;-79
2023/11/10 14:49:14;;;;;;;;;;;;;;;;;;5061536;28;20360;-79
2023/11/10 14:51:42;;;;;;;;;;;;;;;;;;5063792;28;19928;-69
2023/11/10 14:54:09;;;;;;;;;;;;;;;;;;5059846;28;19932;-70
2023/11/10 14:56:36;;;;;;;;;;;;;;;;;;5064135;28;20291;-70
2023/11/10 14:59:05;;;;;;;;;;;;;;;;;;5066680;28;20248;-70
2023/11/10 15:01:34;;;;;;;;;;;;;;;;;;5062372;28;19925;-70
2023/11/10 15:04:02;;;;;;;;;;;;;;;;;;5059768;28;19935;-69
2023/11/10 15:06:32;;;;;;;;;;;;;;;;;;5065153;28;19924;-67
2023/11/10 15:09:00;;;;;;;;;;;;;;;;;;5064275;28;19932;-67
2023/11/10 15:11:27;;;;;;;;;;;;;;;;;;5062978;28;20011;-71
2023/11/10 15:13:54;;;;;;;;;;;;;;;;;;5065660;28;19952;-69
2023/11/10 15:16:21;;;;;;;;;;;;;;;;;;5063307;28;19939;-68
2023/11/10 15:18:48;;;;;;;;;;;;;;;;;;5065335;28;19972;-68
2023/11/10 15:21:15;;;;;;;;;;;;;;;;;;5066051;28;19929;-70
2023/11/10 15:23:42;;;;;;;;;;;;;;;;;;5059744;28;19925;-68
2023/11/10 15:26:10;;;;;;;;;;;;;;;;;;5068014;28;20042;-69
2023/11/10 15:28:37;;;;;;;;;;;;;;;;;;5058416;28;19967;-68
2023/11/10 15:31:04;;;;;;;;;;;;;;;;;;5066353;28;20299;-69
2023/11/10 15:33:35;;;;;;;;;;;;;;;;;;5068379;28;19935;-67
2023/11/10 15:36:03;;;;;;;;;;;;;;;;;;5059776;28;19939;-69
2023/11/10 15:38:30;;;;;;;;;;;;;;;;;;5061327;28;19971;-69
2023/11/10 15:40:59;;;;;;;;;;;;;;;;;;5069249;28;20015;-69
2023/11/10 15:43:26;;;;;;;;;;;;;;;;;;5068713;28;19963;-68
2023/11/10 15:45:53;;;;;;;;;;;;;;;;;;5065010;28;20523;-69
2023/11/10 15:48:20;;;;;;;;;;;;;;;;;;5069332;28;19924;-69
2023/11/10 15:50:47;;;;;;;;;;;;;;;;;;5066875;28;19932;-69
2023/11/10 15:53:14;;;;;;;;;;;;;;;;;;5063363;28;19933;-67
2023/11/10 15:55:44;;;;;;;;;;;;;;;;;;5064711;28;19931;-68
2023/11/10 15:58:11;;;;;;;;;;;;;;;;;;5066418;28;19944;-68
2023/11/10 16:00:41;;;;;;;;;;;;;;;;;;5064242;28;19947;-69
2023/11/10 16:03:08;;;;;;;;;;;;;;;;;;5059057;28;20379;-68
2023/11/10 16:05:35;;;;;;;;;;;;;;;;;;5068196;28;20023;-70
2023/11/10 16:08:05;;;;;;;;;;;;;;;;;;5064687;28;20284;-68
2023/11/10 16:10:35;;;;;;;;;;;;;;;;;;5067282;28;20398;-68
2023/11/10 16:13:02;;;;;;;;;;;;;;;;;;5072831;28;19924;-70
2023/11/10 16:15:29;;;;;;;;;;;;;;;;;;5067843;28;20025;-68
2023/11/10 16:17:57;;;;;;;;;;;;;;;;;;5067589;28;19946;-69
2023/11/10 16:20:24;;;;;;;;;;;;;;;;;;5061376;28;20442;-68
2023/11/10 16:22:52;;;;;;;;;;;;;;;;;;5061832;28;20091;-68
2023/11/10 16:25:19;;;;;;;;;;;;;;;;;;5066940;28;19975;-69
2023/11/10 16:27:46;;;;;;;;;;;;;;;;;;5069304;28;19925;-69
2023/11/10 16:30:13;;;;;;;;;;;;;;;;;;5090664;28;19978;-68
2023/11/10 16:32:40;;;;;;;;;;;;;;;;;;5070166;28;19925;-68
2023/11/10 16:35:07;;;;;;;;;;;;;;;;;;5069414;28;19971;-70
2023/11/10 16:37:35;;;;;;;;;;;;;;;;;;5061934;28;19928;-69
2023/11/10 16:40:02;;;;;;;;;;;;;;;;;;5065317;28;19939;-70
2023/11/10 16:42:29;;;;;;;;;;;;;;;;;;5070145;28;19994;-70
2023/11/10 16:44:57;;;;;;;;;;;;;;;;;;5065119;28;19948;-72